createdAt,value
2018-06-12T00:02:11.679Z,97141.30
2018-06-12T00:04:40.956Z,97139.55
2018-06-12T00:07:10.613Z,97140.45
2018-06-12T00:09:40.288Z,97144.57
2018-06-12T00:12:09.544Z,97140.72
2018-06-12T00:14:38.803Z,97146.80
2018-06-12T00:17:08.472Z,97151.85
2018-06-12T00:19:37.725Z,97155.59
2018-06-12T00:22:06.960Z,97161.16
2018-06-12T00:24:36.175Z,97154.61
2018-06-12T00:27:05.429Z,97155.84
2018-06-12T00:29:34.774Z,97163.66
2018-06-12T00:32:03.974Z,97159.48
2018-06-12T00:34:33.210Z,97161.77
2018-06-12T00:37:02.463Z,97156.69
2018-06-12T00:39:31.661Z,97162.28
2018-06-12T00:42:00.963Z,97169.98
2018-06-12T00:44:30.378Z,97174.02
2018-06-12T00:46:59.578Z,97172.28
2018-06-12T00:49:28.848Z,97168.17
2018-06-12T00:51:58.142Z,97175.22
2018-06-12T00:54:27.424Z,97169.70
2018-06-12T00:57:07.755Z,97171.23
2018-06-12T00:59:37.001Z,97165.98
2018-06-12T01:02:06.296Z,97153.88
2018-06-12T01:04:35.568Z,97165.19
2018-06-12T01:07:04.788Z,97157.84
2018-06-12T01:09:34.592Z,97166.23
2018-06-12T01:12:03.845Z,97163.83
2018-06-12T01:14:33.095Z,97169.17
2018-06-12T01:17:02.486Z,97167.20
2018-06-12T01:19:31.730Z,97174.00
2018-06-12T01:22:01.020Z,97175.34
2018-06-12T01:24:30.304Z,97174.80
2018-06-12T01:26:59.578Z,97173.81
2018-06-12T01:29:28.987Z,97173.26
2018-06-12T01:31:58.332Z,97170.22
2018-06-12T01:34:27.656Z,97173.92
2018-06-12T01:36:56.917Z,97172.11
2018-06-12T01:39:26.186Z,97169.03
2018-06-12T01:41:55.547Z,97161.69
2018-06-12T01:44:24.799Z,97169.35
2018-06-12T01:46:54.147Z,97173.69
2018-06-12T01:49:23.386Z,97168.27
2018-06-12T01:51:52.393Z,97174.37
2018-06-12T01:54:21.711Z,97172.95
2018-06-12T01:56:50.954Z,97177.53
2018-06-12T01:59:20.340Z,97177.72
2018-06-12T02:01:49.607Z,97175.39
2018-06-12T02:04:18.839Z,97175.97
2018-06-12T02:06:48.103Z,97175.91
2018-06-12T02:09:17.327Z,97173.32
2018-06-12T02:11:46.659Z,97172.52
2018-06-12T02:14:15.910Z,97176.27
2018-06-12T02:16:45.208Z,97170.89
2018-06-12T02:19:14.485Z,97175.47
2018-06-12T02:21:43.790Z,97169.29
2018-06-12T02:24:13.082Z,97170.64
2018-06-12T02:26:43.110Z,97169.70
2018-06-12T02:29:13.603Z,97164.09
2018-06-12T02:31:42.992Z,97163.66
2018-06-12T02:34:12.277Z,97158.53
2018-06-12T02:36:41.673Z,97158.66
2018-06-12T02:39:10.977Z,97159.27
2018-06-12T02:41:40.279Z,97158.36
2018-06-12T02:44:09.636Z,97160.98
2018-06-12T02:46:38.984Z,97148.94
2018-06-12T02:49:09.136Z,97146.91
2018-06-12T02:51:38.337Z,97142.98
2018-06-12T02:54:07.533Z,97140.07
2018-06-12T02:56:36.797Z,97143.78
2018-06-12T02:59:06.114Z,97135.16
2018-06-12T03:01:35.415Z,97136.22
2018-06-12T03:04:04.672Z,97134.73
2018-06-12T03:06:33.958Z,97134.98
2018-06-12T03:09:03.198Z,97132.98
2018-06-12T03:11:32.166Z,97127.39
2018-06-12T03:14:01.439Z,97134.80
2018-06-12T03:16:30.695Z,97139.09
2018-06-12T03:18:59.994Z,97138.66
2018-06-12T03:21:29.302Z,97136.58
2018-06-12T03:23:58.599Z,97131.13
2018-06-12T03:26:27.650Z,97134.19
2018-06-12T03:28:56.906Z,97128.26
2018-06-12T03:31:26.259Z,97130.22
2018-06-12T03:33:55.543Z,97137.97
2018-06-12T03:36:24.797Z,97135.78
2018-06-12T03:38:54.103Z,97138.84
2018-06-12T03:41:23.415Z,97140.19
2018-06-12T03:43:52.683Z,97143.89
2018-06-12T03:46:21.959Z,97143.42
2018-06-12T03:48:51.215Z,97143.97
2018-06-12T03:51:20.461Z,97141.78
2018-06-12T03:53:49.749Z,97146.61
2018-06-12T03:56:19.004Z,97142.52
2018-06-12T03:58:48.267Z,97150.47
2018-06-12T04:01:17.515Z,97154.22
2018-06-12T04:03:46.810Z,97153.89
2018-06-12T04:06:16.071Z,97146.61
2018-06-12T04:08:45.357Z,97153.41
2018-06-12T04:11:14.653Z,97153.63
2018-06-12T04:13:43.990Z,97140.07
2018-06-12T04:16:13.266Z,97137.75
2018-06-12T04:18:42.549Z,97134.63
2018-06-12T04:21:11.821Z,97128.26
2018-06-12T04:23:41.133Z,97121.28
2018-06-12T04:26:10.395Z,97127.28
2018-06-12T04:28:39.751Z,97122.41
2018-06-12T04:31:09.017Z,97118.01
2018-06-12T04:33:38.276Z,97121.72
2018-06-12T04:36:07.487Z,97119.27
2018-06-12T04:38:36.811Z,97116.44
2018-06-12T04:41:06.094Z,97118.02
2018-06-12T04:43:35.436Z,97116.77
2018-06-12T04:46:04.704Z,97126.20
2018-06-12T04:48:33.962Z,97138.41
2018-06-12T04:51:03.335Z,97134.33
2018-06-12T04:53:32.616Z,97129.03
2018-06-12T04:56:01.862Z,97131.54
2018-06-12T04:58:31.098Z,97134.58
2018-06-12T05:01:00.339Z,97132.86
2018-06-12T05:03:29.551Z,97132.85
2018-06-12T05:05:58.896Z,97139.97
2018-06-12T05:08:28.127Z,97139.38
2018-06-12T05:10:57.416Z,97144.64
2018-06-12T05:13:26.663Z,97139.67
2018-06-12T05:15:55.959Z,97143.09
2018-06-12T05:18:25.215Z,97144.53
2018-06-12T05:20:54.654Z,97135.42
2018-06-12T05:23:23.953Z,97131.30
2018-06-12T05:25:53.260Z,97130.51
2018-06-12T05:28:22.646Z,97134.55
2018-06-12T05:30:51.959Z,97144.38
2018-06-12T05:33:21.177Z,97141.44
2018-06-12T05:35:50.448Z,97147.19
2018-06-12T05:38:19.747Z,97144.41
2018-06-12T05:40:49.014Z,97137.66
2018-06-12T05:43:18.243Z,97138.86
2018-06-12T05:45:47.522Z,97141.69
2018-06-12T05:48:16.835Z,97148.92
2018-06-12T05:50:46.059Z,97157.30
2018-06-12T05:53:15.354Z,97159.92
2018-06-12T05:55:44.594Z,97164.79
2018-06-12T05:58:13.853Z,97163.05
2018-06-12T06:00:43.176Z,97167.44
2018-06-12T06:03:12.468Z,97173.95
2018-06-12T06:05:41.714Z,97179.38
2018-06-12T06:08:11.093Z,97177.95
2018-06-12T06:10:40.421Z,97181.80
2018-06-12T06:13:09.709Z,97175.88
2018-06-12T06:15:38.900Z,97182.33
2018-06-12T06:18:08.119Z,97181.63
2018-06-12T06:20:37.416Z,97182.48
2018-06-12T06:23:06.706Z,97178.43
2018-06-12T06:25:35.949Z,97168.42
2018-06-12T06:28:05.243Z,97172.61
2018-06-12T06:30:34.551Z,97173.33
2018-06-12T06:33:03.798Z,97180.45
2018-06-12T06:35:33.014Z,97180.34
2018-06-12T06:38:02.318Z,97182.61
2018-06-12T06:40:31.583Z,97185.42
2018-06-12T06:43:00.887Z,97184.56
2018-06-12T06:45:30.079Z,97186.47
2018-06-12T06:47:59.339Z,97184.94
2018-06-12T06:50:28.611Z,97186.69
2018-06-12T06:52:57.705Z,97184.94
2018-06-12T06:55:26.716Z,97185.03
2018-06-12T06:57:56.004Z,97187.33
2018-06-12T07:00:25.276Z,97186.77
2018-06-12T07:02:54.555Z,97187.47
2018-06-12T07:05:23.791Z,97187.27
2018-06-12T07:07:53.074Z,97193.08
2018-06-12T07:10:22.352Z,97187.97
2018-06-12T07:12:51.576Z,97194.72
2018-06-12T07:15:20.745Z,97190.03
2018-06-12T07:17:49.963Z,97196.22
2018-06-12T07:20:36.123Z,97192.48
2018-06-12T07:23:05.525Z,97189.38
2018-06-12T07:25:34.763Z,97185.33
2018-06-12T07:28:04.127Z,97185.83
2018-06-12T07:30:33.285Z,97179.70
2018-06-12T07:33:02.289Z,97182.88
2018-06-12T07:35:31.249Z,97184.69
2018-06-12T07:38:00.454Z,97187.88
2018-06-12T07:40:29.666Z,97184.23
2018-06-12T07:42:58.928Z,97176.72
2018-06-12T07:45:28.127Z,97177.47
2018-06-12T07:47:57.402Z,97181.92
2018-06-12T07:50:26.600Z,97176.18
2018-06-12T07:52:55.928Z,97180.37
2018-06-12T07:55:24.891Z,97185.04
2018-06-12T07:57:54.151Z,97181.63
2018-06-12T08:00:23.423Z,97175.48
2018-06-12T08:02:52.694Z,97184.13
2018-06-12T08:05:21.915Z,97173.55
2018-06-12T08:07:51.213Z,97175.64
2018-06-12T08:10:20.430Z,97175.31
2018-06-12T08:12:49.857Z,97183.98
2018-06-12T08:15:19.031Z,97177.66
2018-06-12T08:17:48.253Z,97174.34
2018-06-12T08:20:17.485Z,97178.33
2018-06-12T08:22:46.700Z,97181.31
2018-06-12T08:25:15.969Z,97187.39
2018-06-12T08:27:45.220Z,97178.78
2018-06-12T08:30:14.580Z,97182.44
2018-06-12T08:32:43.820Z,97186.86
2018-06-12T08:35:13.187Z,97187.05
2018-06-12T08:37:42.543Z,97185.77
2018-06-12T08:40:11.832Z,97185.70
2018-06-12T08:42:41.130Z,97180.16
2018-06-12T08:45:10.431Z,97176.23
2018-06-12T08:47:39.692Z,97181.52
2018-06-12T08:50:08.940Z,97179.16
2018-06-12T08:52:38.146Z,97176.06
2018-06-12T08:55:07.375Z,97182.64
2018-06-12T08:57:36.610Z,97176.84
2018-06-12T09:00:05.997Z,97175.14
2018-06-12T09:02:35.208Z,97178.14
2018-06-12T09:05:04.483Z,97170.30
2018-06-12T09:07:33.755Z,97171.57
2018-06-12T09:10:02.767Z,97171.52
2018-06-12T09:12:31.924Z,97167.96
2018-06-12T09:15:01.275Z,97179.61
2018-06-12T09:17:30.562Z,97172.92
2018-06-12T09:19:59.824Z,97174.23
2018-06-12T09:22:29.103Z,97168.72
2018-06-12T09:24:58.378Z,97170.21
2018-06-12T09:27:27.606Z,97164.08
2018-06-12T09:29:56.882Z,97165.66
2018-06-12T09:32:26.162Z,97161.05
2018-06-12T09:34:55.414Z,97157.03
2018-06-12T09:37:24.675Z,97159.13
2018-06-12T09:39:54.027Z,97159.69
2018-06-12T09:42:23.272Z,97154.02
2018-06-12T09:44:52.526Z,97156.42
2018-06-12T09:47:22.292Z,97156.20
2018-06-12T09:49:51.556Z,97148.25
2018-06-12T09:52:21.017Z,97150.08
2018-06-12T09:54:49.997Z,97154.24
2018-06-12T09:57:19.250Z,97152.02
2018-06-12T09:59:48.481Z,97150.87
2018-06-12T10:02:17.747Z,97149.73
2018-06-12T10:04:47.007Z,97147.22
2018-06-12T10:07:16.326Z,97147.72
2018-06-12T10:09:45.693Z,97144.33
2018-06-12T10:12:15.034Z,97155.30
2018-06-12T10:14:44.434Z,97147.12
2018-06-12T10:17:13.748Z,97142.94
2018-06-12T10:19:43.165Z,97140.08
2018-06-12T10:22:12.643Z,97142.22
2018-06-12T10:24:41.927Z,97144.30
2018-06-12T10:27:11.208Z,97141.20
2018-06-12T10:29:40.455Z,97134.06
2018-06-12T10:32:09.730Z,97137.68
2018-06-12T10:34:38.962Z,97136.98
2018-06-12T10:37:08.312Z,97133.88
2018-06-12T10:39:37.579Z,97136.16
2018-06-12T10:42:06.851Z,97127.19
2018-06-12T10:44:36.103Z,97124.03
2018-06-12T10:47:05.608Z,97128.82
2018-06-12T10:49:34.862Z,97124.85
2018-06-12T10:52:04.239Z,97132.91
2018-06-12T10:54:33.478Z,97139.52
2018-06-12T10:57:02.697Z,97134.85
2018-06-12T10:59:31.930Z,97138.48
2018-06-12T11:02:01.199Z,97139.20
2018-06-12T11:04:30.451Z,97137.97
2018-06-12T11:06:59.751Z,97145.67
2018-06-12T11:09:29.046Z,97145.77
2018-06-12T11:11:58.392Z,97144.56
2018-06-12T11:14:27.790Z,97149.23
2018-06-12T11:16:57.148Z,97147.77
2018-06-12T11:19:26.396Z,97154.02
2018-06-12T11:21:55.676Z,97158.63
2018-06-12T11:24:24.886Z,97163.03
2018-06-12T11:26:54.240Z,97171.38
2018-06-12T11:29:23.487Z,97158.34
2018-06-12T11:31:52.728Z,97156.25
2018-06-12T11:34:21.955Z,97156.63
2018-06-12T11:36:51.419Z,97155.48
2018-06-12T11:39:20.803Z,97163.73
2018-06-12T11:41:50.324Z,97149.67
2018-06-12T11:44:19.609Z,97142.63
2018-06-12T11:46:49.214Z,97151.73
2018-06-12T11:49:18.469Z,97155.29
2018-06-12T11:51:47.863Z,97171.83
2018-06-12T11:54:17.084Z,97177.22
2018-06-12T11:56:47.693Z,97182.53
2018-06-12T11:59:17.016Z,97170.79
2018-06-12T12:01:46.389Z,97174.36
2018-06-12T12:04:15.704Z,97174.78
2018-06-12T12:06:44.963Z,97173.27
2018-06-12T12:09:14.357Z,97174.23
2018-06-12T12:11:43.586Z,97174.98
2018-06-12T12:14:12.930Z,97172.45
2018-06-12T12:16:42.635Z,97176.34
2018-06-12T12:19:12.072Z,97176.46
2018-06-12T12:21:41.486Z,97174.73
2018-06-12T12:24:11.900Z,97183.79
2018-06-12T12:26:41.181Z,97182.91
2018-06-12T12:29:11.506Z,97181.02
2018-06-12T12:31:40.909Z,97175.61
2018-06-12T12:34:10.224Z,97176.51
2018-06-12T12:36:39.409Z,97181.56
2018-06-12T12:39:09.391Z,97185.55
2018-06-12T12:41:38.616Z,97178.92
2018-06-12T12:44:07.895Z,97179.72
2018-06-12T12:46:37.077Z,97180.23
2018-06-12T12:49:06.302Z,97186.12
2018-06-12T12:51:35.483Z,97182.56
2018-06-12T12:54:04.721Z,97180.65
2018-06-12T12:56:34.139Z,97172.91
2018-06-12T12:59:03.411Z,97174.80
2018-06-12T13:01:32.619Z,97165.11
2018-06-12T13:04:01.997Z,97169.38
2018-06-12T13:06:31.246Z,97164.72
2018-06-12T13:09:00.530Z,97162.89
2018-06-12T13:11:30.167Z,97169.50
2018-06-12T13:13:59.451Z,97176.05
2018-06-12T13:16:28.670Z,97176.34
2018-06-12T13:18:57.939Z,97169.65
2018-06-12T13:21:27.170Z,97168.08
2018-06-12T13:23:56.568Z,97177.76
2018-06-12T13:26:25.787Z,97182.78
2018-06-12T13:28:55.032Z,97184.45
2018-06-12T13:31:24.306Z,97188.05
2018-06-12T13:33:53.520Z,97188.13
2018-06-12T13:36:22.758Z,97187.89
2018-06-12T13:38:52.088Z,97189.28
2018-06-12T13:41:21.256Z,97182.36
2018-06-12T13:43:50.498Z,97188.37
2018-06-12T13:46:20.823Z,97183.17
2018-06-12T13:48:50.137Z,97180.19
2018-06-12T13:51:19.494Z,97183.35
2018-06-12T13:53:48.716Z,97180.19
2018-06-12T13:56:18.019Z,97179.03
2018-06-12T13:58:47.239Z,97177.61
2018-06-12T14:01:16.796Z,97173.30
2018-06-12T14:03:46.070Z,97171.60
2018-06-12T14:06:15.359Z,97169.03
2018-06-12T14:08:44.659Z,97163.64
2018-06-12T14:11:14.163Z,97166.05
2018-06-12T14:13:43.566Z,97159.99
2018-06-12T14:16:13.539Z,97148.25
2018-06-12T14:18:42.975Z,97145.78
2018-06-12T14:21:12.278Z,97137.46
2018-06-12T14:23:41.647Z,97128.11
2018-06-12T14:26:10.942Z,97132.30
2018-06-12T14:28:40.220Z,97139.38
2018-06-12T14:31:09.461Z,97146.66
2018-06-12T14:33:38.706Z,97151.75
2018-06-12T14:36:07.998Z,97152.77
2018-06-12T14:38:37.199Z,97143.80
2018-06-12T14:41:06.458Z,97147.36
2018-06-12T14:43:35.766Z,97146.65
2018-06-12T14:46:05.131Z,97142.46
2018-06-12T14:48:34.549Z,97150.30
2018-06-12T14:51:03.824Z,97145.61
2018-06-12T14:53:33.106Z,97140.30
2018-06-12T14:56:02.371Z,97139.42
2018-06-12T14:58:31.595Z,97135.73
2018-06-12T15:01:00.871Z,97128.19
2018-06-12T15:03:30.484Z,97121.44
2018-06-12T15:05:59.706Z,97130.19
2018-06-12T15:08:28.950Z,97128.04
2018-06-12T15:10:58.306Z,97127.70
2018-06-12T15:13:27.576Z,97132.41
2018-06-12T15:15:56.803Z,97127.48
2018-06-12T15:18:26.098Z,97126.16
2018-06-12T15:20:55.272Z,97129.22
2018-06-12T15:23:24.586Z,97136.76
2018-06-12T15:25:53.796Z,97127.87
2018-06-12T15:28:23.023Z,97123.57
2018-06-12T15:30:53.854Z,97137.47
2018-06-12T15:33:23.157Z,97126.58
2018-06-12T15:35:52.339Z,97124.84
2018-06-12T15:38:21.620Z,97111.87
2018-06-12T15:40:50.854Z,97113.05
2018-06-12T15:43:20.164Z,97100.49
2018-06-12T15:45:49.375Z,97097.97
2018-06-12T15:48:18.690Z,97092.53
2018-06-12T15:50:47.887Z,97091.63
2018-06-12T15:53:17.130Z,97091.85
2018-06-12T15:55:46.347Z,97089.31
2018-06-12T15:58:15.672Z,97094.58
2018-06-12T16:00:45.021Z,97094.98
2018-06-12T16:03:14.261Z,97093.34
2018-06-12T16:05:43.639Z,97089.98
2018-06-12T16:08:12.933Z,97088.08
2018-06-12T16:10:42.207Z,97085.02
2018-06-12T16:13:11.499Z,97081.41
2018-06-12T16:15:40.751Z,97070.30
2018-06-12T16:18:10.008Z,97080.84
2018-06-12T16:20:39.270Z,97072.74
2018-06-12T16:23:08.493Z,97073.95
2018-06-12T16:25:37.870Z,97077.33
2018-06-12T16:28:07.115Z,97074.89
2018-06-12T16:30:36.343Z,97073.77
2018-06-12T16:33:05.599Z,97077.56
2018-06-12T16:35:34.813Z,97068.53
2018-06-12T16:38:04.027Z,97073.35
2018-06-12T16:40:33.235Z,97073.55
2018-06-12T16:43:02.484Z,97066.99
2018-06-12T16:45:31.738Z,97070.25
2018-06-12T16:48:01.001Z,97062.74
2018-06-12T16:50:30.245Z,97071.39
2018-06-12T16:52:59.608Z,97068.96
2018-06-12T16:55:28.858Z,97066.43
2018-06-12T16:57:58.073Z,97069.13
2018-06-12T17:00:27.331Z,97069.05
2018-06-12T17:02:56.569Z,97070.00
2018-06-12T17:05:25.813Z,97060.00
2018-06-12T17:07:55.023Z,97060.23
2018-06-12T17:10:24.269Z,97060.45
2018-06-12T17:12:53.454Z,97066.34
2018-06-12T17:15:22.661Z,97070.48
2018-06-12T17:17:52.527Z,97065.14
2018-06-12T17:20:21.799Z,97065.79
2018-06-12T17:22:51.009Z,97058.80
2018-06-12T17:25:20.217Z,97066.02
2018-06-12T17:27:49.452Z,97064.91
2018-06-12T17:30:18.692Z,97072.41
2018-06-12T17:32:47.875Z,97080.42
2018-06-12T17:35:17.107Z,97085.59
2018-06-12T17:37:46.337Z,97092.91
2018-06-12T17:40:15.602Z,97088.42
2018-06-12T17:42:44.926Z,97095.05
2018-06-12T17:45:14.364Z,97094.88
2018-06-12T17:47:43.739Z,97098.19
2018-06-12T17:50:12.982Z,97100.27
2018-06-12T17:52:42.357Z,97099.97
2018-06-12T17:55:11.701Z,97099.61
2018-06-12T17:57:40.949Z,97103.75
2018-06-12T18:00:10.242Z,97094.16
2018-06-12T18:02:39.432Z,97099.17
2018-06-12T18:05:08.708Z,97091.95
2018-06-12T18:07:37.901Z,97094.27
2018-06-12T18:10:07.226Z,97100.70
2018-06-12T18:12:36.417Z,97094.39
2018-06-12T18:15:05.670Z,97097.77
2018-06-12T18:17:35.042Z,97104.55
2018-06-12T18:20:04.295Z,97107.22
2018-06-12T18:22:33.700Z,97107.03
2018-06-12T18:25:02.970Z,97110.45
2018-06-12T18:27:32.328Z,97106.95
2018-06-12T18:30:01.558Z,97106.61
2018-06-12T18:32:30.863Z,97104.15
2018-06-12T18:35:00.177Z,97107.23
2018-06-12T18:37:29.359Z,97101.23
2018-06-12T18:39:58.566Z,97107.91
2018-06-12T18:42:27.798Z,97109.72
2018-06-12T18:44:57.000Z,97112.05
2018-06-12T18:47:26.303Z,97105.95
2018-06-12T18:49:55.500Z,97115.13
2018-06-12T18:52:25.290Z,97111.89
2018-06-12T18:54:54.579Z,97114.94
2018-06-12T18:57:23.847Z,97116.79
2018-06-12T18:59:53.047Z,97112.22
2018-06-12T19:02:22.291Z,97120.63
2018-06-12T19:04:51.483Z,97121.11
2018-06-12T19:07:20.767Z,97125.94
2018-06-12T19:09:50.909Z,97120.37
2018-06-12T19:12:20.159Z,97126.42
2018-06-12T19:14:49.382Z,97133.27
2018-06-12T19:17:19.632Z,97126.04
2018-06-12T19:19:48.859Z,97131.73
2018-06-12T19:22:18.229Z,97141.45
2018-06-12T19:24:47.596Z,97139.22
2018-06-12T19:27:16.901Z,97140.81
2018-06-12T19:29:46.267Z,97144.23
2018-06-12T19:32:15.641Z,97151.62
2018-06-12T19:34:44.861Z,97156.16
2018-06-12T19:37:14.107Z,97165.31
2018-06-12T19:39:43.416Z,97164.06
2018-06-12T19:42:12.719Z,97165.75
2018-06-12T19:44:41.950Z,97166.86
2018-06-12T19:47:11.227Z,97169.69
2018-06-12T19:49:40.423Z,97177.66
2018-06-12T19:52:09.771Z,97183.09
2018-06-12T19:54:39.002Z,97176.84
2018-06-12T19:57:08.258Z,97187.26
2018-06-12T19:59:37.396Z,97186.83
2018-06-12T20:02:06.720Z,97188.55
2018-06-12T20:04:35.909Z,97183.77
2018-06-12T20:07:05.183Z,97187.77
2018-06-12T20:09:34.968Z,97192.03
2018-06-12T20:12:04.169Z,97195.23
2018-06-12T20:14:33.411Z,97193.69
2018-06-12T20:17:02.783Z,97197.59
2018-06-12T20:19:32.015Z,97194.02
2018-06-12T20:22:01.235Z,97203.54
2018-06-12T20:24:30.547Z,97199.54
2018-06-12T20:26:59.812Z,97202.97
2018-06-12T20:29:29.067Z,97200.30
2018-06-12T20:31:59.654Z,97203.66
2018-06-12T20:34:28.878Z,97205.25
2018-06-12T20:36:58.081Z,97205.72
2018-06-12T20:39:28.292Z,97212.57
2018-06-12T20:41:57.575Z,97214.97
2018-06-12T20:44:26.823Z,97210.53
2018-06-12T20:46:56.067Z,97211.91
2018-06-12T20:49:25.463Z,97216.22
2018-06-12T20:51:54.663Z,97218.37
2018-06-12T20:54:23.875Z,97222.72
2018-06-12T20:56:53.122Z,97218.17
2018-06-12T20:59:22.357Z,97225.96
2018-06-12T21:01:51.611Z,97218.48
2018-06-12T21:04:21.112Z,97223.75
2018-06-12T21:06:50.308Z,97223.02
2018-06-12T21:09:19.612Z,97222.89
2018-06-12T21:11:48.821Z,97223.53
2018-06-12T21:14:18.093Z,97229.17
2018-06-12T21:16:47.286Z,97221.12
2018-06-12T21:19:16.539Z,97219.04
2018-06-12T21:21:45.782Z,97221.56
2018-06-12T21:24:15.044Z,97220.16
2018-06-12T21:26:44.285Z,97219.89
2018-06-12T21:29:13.571Z,97219.30
2018-06-12T21:31:42.971Z,97223.49
2018-06-12T21:34:12.200Z,97222.46
2018-06-12T21:36:41.522Z,97224.40
2018-06-12T21:39:10.919Z,97229.93
2018-06-12T21:41:40.173Z,97226.61
2018-06-12T21:44:09.427Z,97232.81
2018-06-12T21:46:38.642Z,97229.88
2018-06-12T21:49:07.889Z,97234.81
2018-06-12T21:51:37.169Z,97232.44
2018-06-12T21:54:06.406Z,97245.16
2018-06-12T21:56:35.660Z,97237.86
2018-06-12T21:59:05.014Z,97241.67
2018-06-12T22:01:34.355Z,97242.58
2018-06-12T22:04:03.692Z,97249.34
2018-06-12T22:06:32.952Z,97257.11
2018-06-12T22:09:02.224Z,97260.95
2018-06-12T22:11:31.474Z,97254.84
2018-06-12T22:14:00.714Z,97255.91
2018-06-12T22:16:29.950Z,97251.30
2018-06-12T22:18:59.239Z,97249.74
2018-06-12T22:21:28.465Z,97247.88
2018-06-12T22:23:57.675Z,97243.09
2018-06-12T22:26:26.841Z,97251.95
2018-06-12T22:28:56.050Z,97257.80
2018-06-12T22:31:25.271Z,97257.78
2018-06-12T22:33:54.872Z,97260.59
2018-06-12T22:36:24.089Z,97254.84
2018-06-12T22:38:53.282Z,97254.48
2018-06-12T22:41:22.602Z,97249.42
2018-06-12T22:43:51.834Z,97251.94
2018-06-12T22:46:21.038Z,97255.16
2018-06-12T22:48:50.274Z,97254.58
2018-06-12T22:51:19.543Z,97253.29
2018-06-12T22:53:48.696Z,97255.06
2018-06-12T22:56:17.962Z,97258.41
2018-06-12T22:58:47.185Z,97268.02
2018-06-12T23:01:16.589Z,97272.84
2018-06-12T23:03:45.847Z,97269.13
2018-06-12T23:06:15.387Z,97269.31
2018-06-12T23:08:44.738Z,97271.55
2018-06-12T23:11:14.824Z,97270.78
2018-06-12T23:13:44.161Z,97277.67
2018-06-12T23:16:13.487Z,97273.69
2018-06-12T23:18:43.046Z,97280.77
2018-06-12T23:21:30.157Z,97280.34
2018-06-12T23:23:59.495Z,97271.51
2018-06-12T23:26:28.698Z,97282.49
2018-06-12T23:28:57.884Z,97285.67
2018-06-12T23:31:27.186Z,97283.88
2018-06-12T23:33:56.718Z,97276.33
2018-06-12T23:36:25.971Z,97282.08
2018-06-12T23:38:55.348Z,97282.31
2018-06-12T23:41:24.571Z,97280.29
2018-06-12T23:43:53.788Z,97289.66
2018-06-12T23:46:23.055Z,97285.91
2018-06-12T23:48:52.258Z,97291.23
2018-06-12T23:51:21.485Z,97299.03
2018-06-12T23:53:50.731Z,97296.36
2018-06-12T23:56:19.979Z,97295.90
2018-06-12T23:58:49.194Z,97290.31
